createdAt,value
2023-02-18T00:01:30.335Z,83.03
2023-02-18T00:03:57.872Z,83.00
2023-02-18T00:06:27.473Z,83.21
2023-02-18T00:08:54.355Z,83.18
2023-02-18T00:11:22.001Z,83.11
2023-02-18T00:13:53.003Z,83.01
2023-02-18T00:16:20.568Z,83.13
2023-02-18T00:18:47.187Z,82.87
2023-02-18T00:21:13.993Z,83.60
2023-02-18T00:23:42.488Z,83.55
2023-02-18T00:26:15.712Z,83.60
2023-02-18T00:28:42.781Z,83.41
2023-02-18T00:31:19.000Z,83.46
2023-02-18T00:33:45.765Z,83.62
2023-02-18T00:36:15.994Z,84.10
2023-02-18T00:38:47.326Z,83.86
2023-02-18T00:41:14.163Z,83.82
2023-02-18T00:43:40.649Z,84.14
2023-02-18T00:46:08.180Z,83.81
2023-02-18T00:48:35.952Z,84.17
2023-02-18T00:51:04.275Z,83.95
2023-02-18T00:53:31.182Z,84.25
2023-02-18T00:55:57.666Z,84.17
2023-02-18T00:58:24.830Z,83.98
2023-02-18T01:00:51.551Z,83.92
2023-02-18T01:03:18.727Z,84.50
2023-02-18T01:05:45.539Z,84.74
2023-02-18T01:08:12.622Z,84.42
2023-02-18T01:10:43.829Z,84.51
2023-02-18T01:13:11.959Z,84.63
2023-02-18T01:15:42.493Z,84.75
2023-02-18T01:18:11.288Z,84.81
2023-02-18T01:20:39.447Z,84.99
2023-02-18T01:23:07.741Z,85.21
2023-02-18T01:25:34.565Z,85.52
2023-02-18T01:28:01.794Z,85.77
2023-02-18T01:30:28.760Z,85.57
2023-02-18T01:32:56.651Z,84.91
2023-02-18T01:35:24.176Z,85.09
2023-02-18T01:37:51.365Z,85.14
2023-02-18T01:40:24.442Z,85.16
2023-02-18T01:42:51.477Z,85.27
2023-02-18T01:45:50.594Z,85.51
2023-02-18T01:48:22.326Z,85.74
2023-02-18T01:50:53.451Z,86.06
2023-02-18T01:53:43.525Z,85.89
2023-02-18T01:56:14.594Z,85.69
2023-02-18T01:58:41.618Z,85.60
2023-02-18T02:01:09.698Z,85.81
2023-02-18T02:03:36.240Z,85.56
2023-02-18T02:06:02.695Z,85.92
2023-02-18T02:08:29.863Z,85.82
2023-02-18T02:11:41.258Z,85.60
2023-02-18T02:14:24.425Z,86.04
2023-02-18T02:17:03.123Z,86.17
2023-02-18T02:20:00.030Z,86.57
2023-02-18T02:22:45.253Z,86.76
2023-02-18T02:25:53.354Z,86.49
2023-02-18T02:28:32.316Z,86.53
2023-02-18T02:31:29.461Z,86.42
2023-02-18T02:34:26.380Z,86.65
2023-02-18T02:37:08.129Z,86.79
2023-02-18T02:39:47.288Z,87.09
2023-02-18T02:42:55.326Z,87.20
2023-02-18T02:45:45.186Z,87.20
2023-02-18T02:48:46.932Z,87.42
2023-02-18T02:51:55.342Z,87.48
2023-02-18T02:54:24.653Z,87.99
2023-02-18T02:57:28.581Z,87.44
2023-02-18T03:00:10.418Z,87.93
2023-02-18T03:03:10.555Z,87.30
2023-02-18T03:06:03.611Z,87.37
2023-02-18T03:08:41.080Z,87.66
2023-02-18T03:11:11.844Z,87.46
2023-02-18T03:13:46.463Z,87.79
2023-02-18T03:16:27.520Z,87.89
2023-02-18T03:18:53.919Z,88.43
2023-02-18T03:21:29.969Z,88.44
2023-02-18T03:24:06.702Z,88.79
2023-02-18T03:26:36.004Z,88.80
2023-02-18T03:29:05.615Z,88.70
2023-02-18T03:31:37.263Z,88.95
2023-02-18T03:34:20.479Z,88.41
2023-02-18T03:36:47.270Z,88.63
2023-02-18T03:39:20.108Z,88.65
2023-02-18T03:41:47.389Z,88.62
2023-02-18T03:44:14.458Z,88.69
2023-02-18T03:46:43.658Z,88.66
2023-02-18T03:49:11.744Z,88.90
2023-02-18T03:51:38.213Z,89.09
2023-02-18T03:54:04.719Z,89.01
2023-02-18T03:56:31.168Z,89.35
2023-02-18T03:58:57.574Z,89.55
2023-02-18T04:01:24.057Z,89.49
2023-02-18T04:03:50.476Z,89.55
2023-02-18T04:06:17.139Z,89.16
2023-02-18T04:08:43.702Z,89.42
2023-02-18T04:11:10.176Z,89.75
2023-02-18T04:13:36.612Z,89.57
2023-02-18T04:16:03.217Z,90.52
2023-02-18T04:18:29.666Z,90.59
2023-02-18T04:20:56.063Z,90.44
2023-02-18T04:23:22.702Z,90.65
2023-02-18T04:25:49.140Z,91.03
2023-02-18T04:28:16.852Z,91.15
2023-02-18T04:30:44.982Z,90.62
2023-02-18T04:33:11.452Z,90.74
2023-02-18T04:35:42.059Z,91.18
2023-02-18T04:38:10.321Z,91.70
2023-02-18T04:40:36.964Z,91.56
2023-02-18T04:43:03.715Z,91.63
2023-02-18T04:45:30.254Z,91.85
2023-02-18T04:47:56.735Z,92.14
2023-02-18T04:50:23.287Z,91.97
2023-02-18T04:52:50.419Z,92.05
2023-02-18T04:55:16.838Z,92.57
2023-02-18T05:00:13.936Z,92.90
2023-02-18T05:02:40.318Z,92.61
2023-02-18T05:05:07.221Z,92.80
2023-02-18T05:07:33.744Z,92.91
2023-02-18T05:10:00.161Z,92.47
2023-02-18T05:12:26.582Z,93.07
2023-02-18T05:14:53.012Z,92.93
2023-02-18T05:17:19.456Z,92.69
2023-02-18T05:19:45.859Z,92.91
2023-02-18T05:22:12.301Z,92.49
2023-02-18T05:24:38.764Z,92.69
2023-02-18T05:27:05.169Z,92.88
2023-02-18T05:29:31.564Z,92.50
2023-02-18T05:31:57.957Z,92.88
2023-02-18T05:34:24.571Z,92.18
2023-02-18T05:36:50.988Z,92.34
2023-02-18T05:39:17.460Z,92.12
2023-02-18T05:41:43.901Z,91.91
2023-02-18T05:44:29.041Z,92.16
2023-02-18T05:46:55.425Z,91.97
2023-02-18T05:49:21.916Z,92.16
2023-02-18T05:51:48.300Z,92.43
2023-02-18T05:54:14.838Z,91.67
2023-02-18T05:56:41.269Z,91.94
2023-02-18T05:59:07.782Z,91.72
2023-02-18T06:01:34.268Z,91.92
2023-02-18T06:04:00.775Z,91.46
2023-02-18T06:06:27.189Z,91.60
2023-02-18T06:08:53.616Z,91.56
2023-02-18T06:11:20.109Z,91.34
2023-02-18T06:13:46.865Z,91.04
2023-02-18T06:16:13.432Z,91.42
2023-02-18T06:18:40.026Z,90.88
2023-02-18T06:21:06.805Z,90.96
2023-02-18T06:23:33.305Z,90.99
2023-02-18T06:25:59.747Z,90.67
2023-02-18T06:28:26.287Z,90.64
2023-02-18T06:30:52.735Z,90.54
2023-02-18T06:33:19.232Z,90.55
2023-02-18T06:36:11.874Z,90.69
2023-02-18T06:38:40.689Z,91.02
2023-02-18T06:41:07.105Z,90.31
2023-02-18T06:43:33.539Z,90.69
2023-02-18T06:45:59.949Z,90.73
2023-02-18T06:48:26.498Z,90.45
2023-02-18T06:50:52.952Z,90.71
2023-02-18T06:53:19.414Z,90.70
2023-02-18T06:55:46.384Z,90.43
2023-02-18T06:58:13.582Z,90.59
2023-02-18T07:00:40.912Z,90.69
2023-02-18T07:03:07.920Z,90.62
2023-02-18T07:05:34.716Z,90.39
2023-02-18T07:08:01.351Z,90.19
2023-02-18T07:10:27.745Z,90.10
2023-02-18T07:12:54.174Z,90.41
2023-02-18T07:15:24.187Z,90.29
2023-02-18T07:17:52.043Z,90.40
2023-02-18T07:20:19.877Z,90.43
2023-02-18T07:22:46.823Z,90.16
2023-02-18T07:25:13.780Z,89.96
2023-02-18T07:27:40.408Z,90.02
2023-02-18T07:30:07.648Z,90.50
2023-02-18T07:32:34.366Z,90.42
2023-02-18T07:35:00.852Z,90.37
2023-02-18T07:37:27.444Z,90.62
2023-02-18T07:39:53.843Z,90.65
2023-02-18T07:42:20.497Z,90.18
2023-02-18T07:44:47.071Z,89.93
2023-02-18T07:47:17.140Z,90.23
2023-02-18T07:49:43.679Z,90.05
2023-02-18T07:52:10.172Z,89.95
2023-02-18T07:54:36.683Z,89.61
2023-02-18T07:57:03.439Z,89.04
2023-02-18T07:59:30.064Z,88.71
2023-02-18T08:01:56.616Z,88.63
2023-02-18T08:04:23.115Z,88.73
2023-02-18T08:06:50.459Z,88.45
2023-02-18T08:09:17.797Z,88.80
2023-02-18T08:11:45.041Z,88.62
2023-02-18T08:14:11.602Z,88.51
2023-02-18T08:16:38.174Z,88.49
2023-02-18T08:19:04.760Z,88.83
2023-02-18T08:21:31.729Z,88.44
2023-02-18T08:23:59.439Z,87.52
2023-02-18T08:26:26.760Z,87.77
2023-02-18T08:28:53.227Z,87.17
2023-02-18T08:31:25.423Z,86.98
2023-02-18T08:33:53.895Z,86.70
2023-02-18T08:36:20.555Z,86.53
2023-02-18T08:38:47.121Z,85.97
2023-02-18T08:41:14.506Z,85.53
2023-02-18T08:43:41.533Z,85.32
2023-02-18T08:46:07.983Z,85.02
2023-02-18T08:48:43.514Z,84.88
2023-02-18T08:51:20.122Z,84.44
2023-02-18T08:53:47.190Z,84.47
2023-02-18T08:56:14.966Z,84.21
2023-02-18T08:58:42.292Z,83.94
2023-02-18T09:01:11.484Z,83.96
2023-02-18T09:03:38.756Z,83.35
2023-02-18T09:06:06.068Z,83.98
2023-02-18T09:08:32.525Z,83.95
2023-02-18T09:11:01.646Z,84.29
2023-02-18T09:13:28.432Z,83.19
2023-02-18T09:16:03.510Z,83.50
2023-02-18T09:18:30.817Z,83.25
2023-02-18T09:20:59.140Z,83.12
2023-02-18T09:23:27.670Z,82.96
2023-02-18T09:25:54.561Z,82.89
2023-02-18T09:28:21.409Z,82.96
2023-02-18T09:30:47.983Z,83.31
2023-02-18T09:33:14.490Z,83.34
2023-02-18T09:35:46.331Z,82.86
2023-02-18T09:38:16.648Z,83.10
2023-02-18T09:40:51.991Z,82.95
2023-02-18T09:43:43.780Z,82.49
2023-02-18T09:46:33.031Z,82.90
2023-02-18T09:49:04.083Z,82.82
2023-02-18T09:51:30.725Z,82.45
2023-02-18T09:53:57.231Z,82.22
2023-02-18T09:56:32.431Z,82.52
2023-02-18T09:59:04.247Z,82.44
2023-02-18T10:01:35.690Z,82.68
2023-02-18T10:04:12.752Z,82.60
2023-02-18T10:06:39.161Z,82.21
2023-02-18T10:09:18.669Z,82.23
2023-02-18T10:11:49.292Z,81.87
2023-02-18T10:14:16.145Z,82.02
2023-02-18T10:16:44.196Z,82.19
2023-02-18T10:19:27.947Z,82.23
2023-02-18T10:21:55.658Z,82.11
2023-02-18T10:24:38.111Z,83.67
2023-02-18T10:27:06.563Z,82.64
2023-02-18T10:29:33.822Z,80.97
2023-02-18T10:32:00.326Z,80.31
2023-02-18T10:34:28.487Z,79.37
2023-02-18T10:37:11.669Z,79.25
2023-02-18T10:39:53.760Z,78.68
2023-02-18T10:42:23.220Z,78.76
2023-02-18T10:45:14.051Z,78.28
2023-02-18T10:47:48.897Z,77.82
2023-02-18T10:50:28.238Z,78.20
2023-02-18T10:52:59.543Z,79.42
2023-02-18T10:55:46.778Z,78.40
2023-02-18T10:58:32.463Z,77.39
2023-02-18T11:01:04.677Z,78.77
2023-02-18T11:03:47.107Z,78.64
2023-02-18T11:06:21.763Z,78.48
2023-02-18T11:08:50.060Z,79.33
2023-02-18T11:11:24.029Z,79.96
2023-02-18T11:13:56.180Z,80.72
2023-02-18T11:16:24.545Z,81.26
2023-02-18T11:18:51.025Z,81.74
2023-02-18T11:21:34.531Z,82.02
2023-02-18T11:24:15.992Z,81.71
2023-02-18T11:26:44.636Z,81.78
2023-02-18T11:29:24.080Z,81.21
2023-02-18T11:31:55.061Z,81.38
2023-02-18T11:34:26.178Z,80.79
2023-02-18T11:36:54.020Z,81.04
2023-02-18T11:39:28.680Z,81.32
2023-02-18T11:42:03.473Z,80.86
2023-02-18T11:44:36.646Z,81.12
2023-02-18T11:47:14.961Z,80.67
2023-02-18T11:49:44.050Z,80.20
2023-02-18T11:52:41.487Z,80.06
2023-02-18T11:55:30.649Z,79.89
2023-02-18T11:57:59.855Z,80.12
2023-02-18T12:00:45.257Z,80.28
2023-02-18T12:03:35.188Z,80.60
2023-02-18T12:06:11.933Z,80.04
2023-02-18T12:08:51.416Z,79.58
2023-02-18T12:11:29.096Z,79.75
2023-02-18T12:13:57.395Z,79.46
2023-02-18T12:16:35.726Z,79.51
2023-02-18T12:19:39.172Z,79.63
2023-02-18T12:22:17.964Z,79.10
2023-02-18T12:25:09.317Z,79.17
2023-02-18T12:28:00.731Z,79.33
2023-02-18T12:30:54.364Z,79.36
2023-02-18T12:33:30.048Z,79.34
2023-02-18T12:35:56.473Z,79.01
2023-02-18T12:38:38.882Z,79.42
2023-02-18T12:41:32.516Z,79.18
2023-02-18T12:44:07.917Z,78.85
2023-02-18T12:47:14.642Z,78.61
2023-02-18T12:49:47.620Z,78.32
2023-02-18T12:52:42.621Z,78.59
2023-02-18T12:55:21.561Z,78.60
2023-02-18T12:58:12.077Z,78.49
2023-02-18T13:00:57.355Z,78.53
2023-02-18T13:03:54.973Z,78.39
2023-02-18T13:06:43.121Z,79.04
2023-02-18T13:09:28.511Z,78.94
2023-02-18T13:11:57.911Z,79.02
2023-02-18T13:14:29.613Z,79.35
2023-02-18T13:16:59.433Z,78.94
2023-02-18T13:19:33.675Z,78.58
2023-02-18T13:22:04.601Z,78.36
2023-02-18T13:24:37.174Z,78.04
2023-02-18T13:27:41.941Z,78.11
2023-02-18T13:30:27.304Z,77.41
2023-02-18T13:33:13.063Z,76.67
2023-02-18T13:35:43.808Z,77.05
2023-02-18T13:38:25.466Z,76.66
2023-02-18T13:40:52.807Z,76.62
2023-02-18T13:43:33.632Z,76.19
2023-02-18T13:46:16.336Z,76.51
2023-02-18T13:48:47.468Z,76.43
2023-02-18T13:51:18.168Z,76.18
2023-02-18T13:53:52.203Z,76.25
2023-02-18T13:56:30.998Z,76.56
2023-02-18T13:59:08.376Z,76.52
2023-02-18T14:01:44.008Z,76.83
2023-02-18T14:04:44.524Z,76.94
2023-02-18T14:07:28.492Z,77.08
2023-02-18T14:09:57.904Z,76.88
2023-02-18T14:12:40.523Z,77.08
2023-02-18T14:15:27.417Z,77.31
2023-02-18T14:18:02.678Z,77.02
2023-02-18T14:20:44.516Z,77.39
2023-02-18T14:23:22.844Z,77.45
2023-02-18T14:26:12.404Z,77.57
2023-02-18T14:28:44.783Z,77.71
2023-02-18T14:31:47.514Z,77.88
2023-02-18T14:34:34.354Z,77.74
2023-02-18T14:37:25.584Z,78.00
2023-02-18T14:39:55.026Z,77.90
2023-02-18T14:42:36.619Z,77.41
2023-02-18T14:45:24.418Z,77.66
2023-02-18T14:47:53.760Z,78.06
2023-02-18T14:50:21.852Z,77.66
2023-02-18T14:52:53.094Z,77.80
2023-02-18T14:55:25.483Z,78.45
2023-02-18T14:58:13.349Z,78.21
2023-02-18T15:00:41.917Z,78.13
2023-02-18T15:03:17.671Z,77.94
2023-02-18T15:05:45.252Z,78.13
2023-02-18T15:08:23.502Z,78.37
2023-02-18T15:10:56.439Z,78.59
2023-02-18T15:13:45.251Z,78.72
2023-02-18T15:16:32.897Z,78.95
2023-02-18T15:19:03.687Z,78.74
2023-02-18T15:21:32.879Z,78.65
2023-02-18T15:24:23.595Z,78.81
2023-02-18T15:26:51.944Z,78.60
2023-02-18T15:29:22.673Z,78.89
2023-02-18T15:31:49.938Z,79.12
2023-02-18T15:34:29.396Z,79.70
2023-02-18T15:36:56.898Z,79.62
2023-02-18T15:39:24.028Z,79.59
2023-02-18T15:41:56.570Z,79.64
2023-02-18T15:44:26.858Z,79.64
2023-02-18T15:46:53.637Z,79.44
2023-02-18T15:49:23.778Z,79.14
2023-02-18T15:51:55.170Z,79.64
2023-02-18T15:54:23.468Z,79.48
2023-02-18T15:56:53.335Z,79.72
2023-02-18T15:59:21.672Z,79.98
2023-02-18T16:01:51.483Z,79.58
2023-02-18T16:04:20.756Z,79.76
2023-02-18T16:06:51.378Z,79.85
2023-02-18T16:09:29.341Z,79.69
2023-02-18T16:11:59.771Z,79.72
2023-02-18T16:14:35.234Z,80.03
2023-02-18T16:17:09.233Z,79.69
2023-02-18T16:20:01.599Z,79.93
2023-02-18T16:22:39.064Z,79.88
2023-02-18T16:25:08.515Z,79.73
2023-02-18T16:27:37.678Z,80.21
2023-02-18T16:30:16.982Z,79.90
2023-02-18T16:32:43.692Z,79.97
2023-02-18T16:35:11.466Z,80.35
2023-02-18T16:37:38.431Z,80.32
2023-02-18T16:40:22.369Z,80.54
2023-02-18T16:42:49.089Z,80.77
2023-02-18T16:45:15.741Z,81.13
2023-02-18T16:47:44.624Z,81.02
2023-02-18T16:50:18.723Z,80.91
2023-02-18T16:52:45.340Z,80.74
2023-02-18T16:55:21.746Z,80.89
2023-02-18T16:57:48.708Z,80.59
2023-02-18T17:00:17.119Z,81.08
2023-02-18T17:02:46.830Z,80.79
2023-02-18T17:05:26.765Z,80.84
2023-02-18T17:07:54.552Z,81.08
2023-02-18T17:10:21.632Z,81.38
2023-02-18T17:12:48.129Z,81.17
2023-02-18T17:15:31.487Z,81.46
2023-02-18T17:17:59.547Z,81.14
2023-02-18T17:20:28.450Z,81.09
2023-02-18T17:22:56.178Z,81.29
2023-02-18T17:25:28.212Z,80.81
2023-02-18T17:27:57.833Z,80.91
2023-02-18T17:30:30.493Z,81.07
2023-02-18T17:33:03.163Z,80.93
2023-02-18T17:35:30.218Z,81.28
2023-02-18T17:37:56.681Z,81.29
2023-02-18T17:40:26.083Z,80.63
2023-02-18T17:42:56.394Z,80.94
2023-02-18T17:45:48.792Z,80.91
2023-02-18T17:48:15.431Z,81.40
2023-02-18T17:50:42.660Z,81.11
2023-02-18T17:53:11.680Z,81.28
2023-02-18T17:55:38.622Z,81.40
2023-02-18T17:58:05.108Z,81.10
2023-02-18T18:00:37.280Z,80.99
2023-02-18T18:03:04.338Z,80.98
2023-02-18T18:05:34.137Z,81.46
2023-02-18T18:08:01.712Z,81.00
2023-02-18T18:10:35.536Z,81.37
2023-02-18T18:13:05.519Z,81.21
2023-02-18T18:15:37.999Z,81.81
2023-02-18T18:18:04.739Z,82.24
2023-02-18T18:20:32.922Z,82.06
2023-02-18T18:23:01.934Z,81.97
2023-02-18T18:25:48.589Z,81.89
2023-02-18T18:28:15.876Z,81.68
2023-02-18T18:30:47.901Z,82.31
2023-02-18T18:33:34.001Z,82.48
2023-02-18T18:36:01.145Z,83.40
2023-02-18T18:38:28.997Z,82.80
2023-02-18T18:40:56.880Z,81.81
2023-02-18T18:43:33.087Z,81.82
2023-02-18T18:45:59.809Z,81.80
2023-02-18T18:48:26.293Z,81.97
2023-02-18T18:50:53.556Z,82.21
2023-02-18T18:53:28.365Z,82.10
2023-02-18T18:55:58.129Z,82.28
2023-02-18T18:58:25.027Z,82.41
2023-02-18T19:00:54.662Z,82.38
2023-02-18T19:03:23.530Z,82.63
2023-02-18T19:05:50.514Z,82.45
2023-02-18T19:08:19.631Z,82.74
2023-02-18T19:10:49.526Z,82.83
2023-02-18T19:13:22.108Z,83.24
2023-02-18T19:15:49.847Z,83.29
2023-02-18T19:18:19.572Z,83.51
2023-02-18T19:20:47.538Z,83.36
2023-02-18T19:23:14.928Z,83.49
2023-02-18T19:25:42.441Z,83.05
2023-02-18T19:28:13.524Z,83.44
2023-02-18T19:30:41.389Z,82.99
2023-02-18T19:33:08.740Z,83.20
2023-02-18T19:35:35.377Z,83.36
2023-02-18T19:38:01.842Z,83.13
2023-02-18T19:40:30.250Z,83.65
2023-02-18T19:42:57.013Z,83.83
2023-02-18T19:45:23.474Z,83.50
2023-02-18T19:47:57.582Z,83.44
2023-02-18T19:50:25.890Z,83.64
2023-02-18T19:52:54.497Z,84.43
2023-02-18T19:55:21.784Z,84.26
2023-02-18T19:57:48.433Z,83.66
2023-02-18T20:00:16.158Z,83.63
2023-02-18T20:02:42.970Z,83.50
2023-02-18T20:05:11.540Z,82.92
2023-02-18T20:07:39.075Z,82.85
2023-02-18T20:10:05.942Z,83.03
2023-02-18T20:12:32.690Z,82.85
2023-02-18T20:14:59.228Z,83.03
2023-02-18T20:17:25.885Z,83.28
2023-02-18T20:19:52.351Z,83.31
2023-02-18T20:22:18.853Z,83.67
2023-02-18T20:24:45.371Z,84.03
2023-02-18T20:27:12.640Z,84.01
2023-02-18T20:29:39.223Z,84.19
2023-02-18T20:32:06.288Z,84.05
2023-02-18T20:34:33.161Z,83.52
2023-02-18T20:37:00.250Z,84.48
2023-02-18T20:39:27.244Z,84.78
2023-02-18T20:41:53.837Z,84.66
2023-02-18T20:44:21.094Z,84.86
2023-02-18T20:46:49.625Z,85.34
2023-02-18T20:49:19.961Z,85.15
2023-02-18T20:51:47.022Z,85.23
2023-02-18T20:54:16.026Z,85.01
2023-02-18T20:56:43.702Z,85.15
2023-02-18T20:59:14.552Z,85.21
2023-02-18T21:01:42.518Z,85.15
2023-02-18T21:04:12.194Z,85.87
2023-02-18T21:06:39.034Z,85.69
2023-02-18T21:09:05.717Z,85.72
2023-02-18T21:11:32.259Z,85.86
2023-02-18T21:13:59.380Z,85.67
2023-02-18T21:16:27.759Z,85.90
2023-02-18T21:18:54.532Z,86.12
2023-02-18T21:21:23.518Z,85.74
2023-02-18T21:23:51.113Z,85.70
2023-02-18T21:26:23.554Z,85.40
2023-02-18T21:28:54.859Z,85.60
2023-02-18T21:31:24.769Z,85.57
2023-02-18T21:33:51.740Z,85.43
2023-02-18T21:36:19.037Z,85.81
2023-02-18T21:38:50.476Z,85.89
2023-02-18T21:41:16.875Z,85.56
2023-02-18T21:43:47.059Z,85.83
2023-02-18T21:46:17.335Z,85.28
2023-02-18T21:49:02.150Z,85.07
2023-02-18T21:51:48.865Z,85.11
2023-02-18T21:54:21.136Z,84.95
2023-02-18T21:56:47.876Z,85.09
2023-02-18T21:59:15.308Z,85.30
2023-02-18T22:01:41.876Z,84.84
2023-02-18T22:04:08.906Z,84.85
2023-02-18T22:06:35.492Z,84.33
2023-02-18T22:09:03.795Z,84.79
2023-02-18T22:11:30.952Z,85.14
2023-02-18T22:13:58.050Z,84.89
2023-02-18T22:16:26.629Z,84.77
2023-02-18T22:18:53.289Z,84.54
2023-02-18T22:21:21.053Z,84.60
2023-02-18T22:23:47.687Z,84.27
2023-02-18T22:26:15.040Z,84.50
2023-02-18T22:28:41.528Z,84.88
2023-02-18T22:31:12.761Z,84.46
2023-02-18T22:33:41.098Z,84.26
2023-02-18T22:36:08.183Z,84.50
2023-02-18T22:38:36.399Z,84.74
2023-02-18T22:41:08.296Z,84.39
2023-02-18T22:43:35.667Z,84.56
2023-02-18T22:46:07.580Z,84.91
2023-02-18T22:48:35.851Z,84.00
2023-02-18T22:51:06.378Z,84.06
2023-02-18T22:53:33.901Z,84.04
2023-02-18T22:56:06.741Z,84.25
2023-02-18T22:58:34.728Z,84.79
2023-02-18T23:01:01.540Z,84.36
2023-02-18T23:03:28.774Z,84.42
2023-02-18T23:06:00.737Z,84.75
2023-02-18T23:08:27.231Z,83.95
2023-02-18T23:11:05.109Z,84.37
2023-02-18T23:13:31.764Z,83.62
2023-02-18T23:16:00.290Z,84.21
2023-02-18T23:18:28.193Z,84.07
2023-02-18T23:21:19.931Z,84.19
2023-02-18T23:23:47.727Z,84.08
2023-02-18T23:26:14.998Z,83.89
2023-02-18T23:28:48.006Z,83.78
2023-02-18T23:31:26.156Z,84.10
2023-02-18T23:33:55.721Z,84.00
2023-02-18T23:36:25.476Z,84.07
2023-02-18T23:38:54.709Z,83.80
2023-02-18T23:41:22.141Z,83.57
2023-02-18T23:43:48.907Z,83.63
2023-02-18T23:46:17.155Z,83.93
2023-02-18T23:48:43.724Z,84.26
2023-02-18T23:51:13.410Z,84.00
2023-02-18T23:53:39.996Z,83.90
2023-02-18T23:56:11.533Z,84.28
2023-02-18T23:58:38.682Z,83.92
